sensor_id;sensor_type;location;lat;lon;timestamp;temperature;humidity
45383;DHT22;42455;51.660;5.824;2022-12-05T00:02:12;5.4;95.5
45383;DHT22;42455;51.660;5.824;2022-12-05T00:07:18;5.4;95.5
45383;DHT22;42455;51.660;5.824;2022-12-05T00:12:24;5.4;95.5
45383;DHT22;42455;51.660;5.824;2022-12-05T00:17:31;5.4;95.5
45383;DHT22;42455;51.660;5.824;2022-12-05T00:22:37;5.4;95.5
45383;DHT22;42455;51.660;5.824;2022-12-05T00:27:43;5.4;95.5
45383;DHT22;42455;51.660;5.824;2022-12-05T00:32:49;5.4;95.5
45383;DHT22;42455;51.660;5.824;2022-12-05T00:37:56;5.4;95.5
45383;DHT22;42455;51.660;5.824;2022-12-05T00:43:02;5.5;95.5
45383;DHT22;42455;51.660;5.824;2022-12-05T00:48:08;5.5;95.5
45383;DHT22;42455;51.660;5.824;2022-12-05T00:53:14;5.5;95.5
45383;DHT22;42455;51.660;5.824;2022-12-05T00:58:20;5.5;95.5
45383;DHT22;42455;51.660;5.824;2022-12-05T01:03:27;5.5;95.5
45383;DHT22;42455;51.660;5.824;2022-12-05T01:08:34;5.6;95.5
45383;DHT22;42455;51.660;5.824;2022-12-05T01:13:39;5.6;95.5
45383;DHT22;42455;51.660;5.824;2022-12-05T01:18:46;5.6;95.5
45383;DHT22;42455;51.660;5.824;2022-12-05T01:23:51;5.6;95.5
45383;DHT22;42455;51.660;5.824;2022-12-05T01:28:58;5.6;95.5
45383;DHT22;42455;51.660;5.824;2022-12-05T01:34:06;5.6;95.5
45383;DHT22;42455;51.660;5.824;2022-12-05T01:39:11;5.6;95.5
45383;DHT22;42455;51.660;5.824;2022-12-05T01:49:32;5.6;95.5
45383;DHT22;42455;51.660;5.824;2022-12-05T01:54:29;5.6;95.5
45383;DHT22;42455;51.660;5.824;2022-12-05T01:59:38;5.6;95.5
45383;DHT22;42455;51.660;5.824;2022-12-05T02:04:52;5.7;95.5
45383;DHT22;42455;51.660;5.824;2022-12-05T02:09:50;5.7;95.5
45383;DHT22;42455;51.660;5.824;2022-12-05T02:15:20;5.7;95.5
45383;DHT22;42455;51.660;5.824;2022-12-05T02:20:53;5.7;95.5
45383;DHT22;42455;51.660;5.824;2022-12-05T02:27:25;5.7;95.5
45383;DHT22;42455;51.660;5.824;2022-12-05T02:31:44;5.7;96.0
45383;DHT22;42455;51.660;5.824;2022-12-05T02:36:02;5.7;96.0
45383;DHT22;42455;51.660;5.824;2022-12-05T02:40:39;5.7;96.0
45383;DHT22;42455;51.660;5.824;2022-12-05T02:45:33;5.7;96.0
45383;DHT22;42455;51.660;5.824;2022-12-05T02:50:38;5.8;96.0
45383;DHT22;42455;51.660;5.824;2022-12-05T02:55:44;5.7;96.0
45383;DHT22;42455;51.660;5.824;2022-12-05T03:00:56;5.7;96.0
45383;DHT22;42455;51.660;5.824;2022-12-05T03:06:05;5.7;96.0
45383;DHT22;42455;51.660;5.824;2022-12-05T03:11:02;5.7;96.0
45383;DHT22;42455;51.660;5.824;2022-12-05T03:16:17;5.7;96.0
45383;DHT22;42455;51.660;5.824;2022-12-05T03:21:26;5.7;96.0
45383;DHT22;42455;51.660;5.824;2022-12-05T03:26:35;5.7;96.0
45383;DHT22;42455;51.660;5.824;2022-12-05T03:31:32;5.7;96.0
45383;DHT22;42455;51.660;5.824;2022-12-05T03:36:44;5.7;96.0
45383;DHT22;42455;51.660;5.824;2022-12-05T03:41:56;5.7;96.5
45383;DHT22;42455;51.660;5.824;2022-12-05T03:46:52;5.7;96.5
45383;DHT22;42455;51.660;5.824;2022-12-05T03:51:59;5.7;96.5
45383;DHT22;42455;51.660;5.824;2022-12-05T03:57:01;5.7;96.5
45383;DHT22;42455;51.660;5.824;2022-12-05T04:02:12;5.7;96.5
45383;DHT22;42455;51.660;5.824;2022-12-05T04:07:12;5.7;96.5
45383;DHT22;42455;51.660;5.824;2022-12-05T04:12:20;5.8;96.5
45383;DHT22;42455;51.660;5.824;2022-12-05T04:17:46;5.8;96.5
45383;DHT22;42455;51.660;5.824;2022-12-05T04:22:29;5.8;96.5
45383;DHT22;42455;51.660;5.824;2022-12-05T04:27:58;5.8;96.5
45383;DHT22;42455;51.660;5.824;2022-12-05T04:32:45;5.8;97.0
45383;DHT22;42455;51.660;5.824;2022-12-05T04:37:50;5.8;97.0
45383;DHT22;42455;51.660;5.824;2022-12-05T04:42:55;5.8;97.0
45383;DHT22;42455;51.660;5.824;2022-12-05T04:48:06;5.8;97.0
45383;DHT22;42455;51.660;5.824;2022-12-05T04:53:07;5.8;97.0
45383;DHT22;42455;51.660;5.824;2022-12-05T04:58:20;5.8;97.0
45383;DHT22;42455;51.660;5.824;2022-12-05T05:03:24;5.8;97.0
45383;DHT22;42455;51.660;5.824;2022-12-05T05:08:26;5.8;97.0
45383;DHT22;42455;51.660;5.824;2022-12-05T05:13:30;5.9;97.0
45383;DHT22;42455;51.660;5.824;2022-12-05T05:18:36;5.9;97.0
45383;DHT22;42455;51.660;5.824;2022-12-05T05:23:42;5.9;97.0
45383;DHT22;42455;51.660;5.824;2022-12-05T05:28:49;5.9;97.0
45383;DHT22;42455;51.660;5.824;2022-12-05T05:33:55;5.9;97.0
45383;DHT22;42455;51.660;5.824;2022-12-05T05:39:02;5.9;97.0
45383;DHT22;42455;51.660;5.824;2022-12-05T05:44:06;5.9;97.0
45383;DHT22;42455;51.660;5.824;2022-12-05T05:49:12;6.0;97.5
45383;DHT22;42455;51.660;5.824;2022-12-05T05:54:18;6.0;97.5
45383;DHT22;42455;51.660;5.824;2022-12-05T05:59:25;6.0;97.5
45383;DHT22;42455;51.660;5.824;2022-12-05T06:04:33;6.0;97.5
45383;DHT22;42455;51.660;5.824;2022-12-05T06:09:37;6.0;97.5
45383;DHT22;42455;51.660;5.824;2022-12-05T06:14:43;6.0;97.5
45383;DHT22;42455;51.660;5.824;2022-12-05T06:19:50;6.0;97.5
45383;DHT22;42455;51.660;5.824;2022-12-05T06:24:56;6.0;97.5
45383;DHT22;42455;51.660;5.824;2022-12-05T06:30:02;6.0;97.5
45383;DHT22;42455;51.660;5.824;2022-12-05T06:35:08;6.1;97.5
45383;DHT22;42455;51.660;5.824;2022-12-05T06:40:14;6.1;97.5
45383;DHT22;42455;51.660;5.824;2022-12-05T06:45:21;6.1;97.5
45383;DHT22;42455;51.660;5.824;2022-12-05T06:50:27;6.1;97.5
45383;DHT22;42455;51.660;5.824;2022-12-05T06:55:33;6.1;97.5
45383;DHT22;42455;51.660;5.824;2022-12-05T07:00:39;6.1;97.5
45383;DHT22;42455;51.660;5.824;2022-12-05T07:05:45;6.1;97.5
45383;DHT22;42455;51.660;5.824;2022-12-05T07:10:52;6.1;97.5
45383;DHT22;42455;51.660;5.824;2022-12-05T07:15:58;6.2;97.5
45383;DHT22;42455;51.660;5.824;2022-12-05T07:21:05;6.2;97.5
45383;DHT22;42455;51.660;5.824;2022-12-05T07:26:13;6.2;97.5
45383;DHT22;42455;51.660;5.824;2022-12-05T07:31:19;6.2;97.5
45383;DHT22;42455;51.660;5.824;2022-12-05T07:36:23;6.2;97.5
45383;DHT22;42455;51.660;5.824;2022-12-05T07:41:30;6.2;97.5
45383;DHT22;42455;51.660;5.824;2022-12-05T07:46:36;6.2;97.5
45383;DHT22;42455;51.660;5.824;2022-12-05T07:51:41;6.2;98.0
45383;DHT22;42455;51.660;5.824;2022-12-05T07:56:47;6.2;98.0
45383;DHT22;42455;51.660;5.824;2022-12-05T08:01:54;6.2;98.0
45383;DHT22;42455;51.660;5.824;2022-12-05T08:07:00;6.3;98.0
45383;DHT22;42455;51.660;5.824;2022-12-05T08:12:06;6.2;98.0
45383;DHT22;42455;51.660;5.824;2022-12-05T08:17:12;6.2;98.0
45383;DHT22;42455;51.660;5.824;2022-12-05T08:22:18;6.3;98.0
45383;DHT22;42455;51.660;5.824;2022-12-05T08:27:25;6.3;98.0
45383;DHT22;42455;51.660;5.824;2022-12-05T08:37:37;6.3;98.0
45383;DHT22;42455;51.660;5.824;2022-12-05T08:42:43;6.3;98.0
45383;DHT22;42455;51.660;5.824;2022-12-05T08:47:49;6.3;98.0
45383;DHT22;42455;51.660;5.824;2022-12-05T08:52:56;6.3;98.0
45383;DHT22;42455;51.660;5.824;2022-12-05T08:58:02;6.3;98.0
45383;DHT22;42455;51.660;5.824;2022-12-05T09:08:14;6.3;98.0
45383;DHT22;42455;51.660;5.824;2022-12-05T09:13:21;6.3;98.0
45383;DHT22;42455;51.660;5.824;2022-12-05T09:18:27;6.3;98.0
45383;DHT22;42455;51.660;5.824;2022-12-05T09:23:35;6.3;98.0
45383;DHT22;42455;51.660;5.824;2022-12-05T09:28:40;6.3;98.0
45383;DHT22;42455;51.660;5.824;2022-12-05T09:33:47;6.2;98.0
45383;DHT22;42455;51.660;5.824;2022-12-05T09:38:52;6.2;97.5
45383;DHT22;42455;51.660;5.824;2022-12-05T09:44:33;6.2;97.5
45383;DHT22;42455;51.660;5.824;2022-12-05T09:49:07;6.2;98.0
45383;DHT22;42455;51.660;5.824;2022-12-05T09:54:11;6.2;98.0
45383;DHT22;42455;51.660;5.824;2022-12-05T09:59:17;6.2;98.0
45383;DHT22;42455;51.660;5.824;2022-12-05T10:05:00;6.2;97.5
45383;DHT22;42455;51.660;5.824;2022-12-05T10:09:51;6.2;97.5
45383;DHT22;42455;51.660;5.824;2022-12-05T10:15:21;6.2;97.5
45383;DHT22;42455;51.660;5.824;2022-12-05T10:19:44;6.2;97.5
45383;DHT22;42455;51.660;5.824;2022-12-05T10:24:50;6.2;97.5
45383;DHT22;42455;51.660;5.824;2022-12-05T10:30:01;6.3;97.5
45383;DHT22;42455;51.660;5.824;2022-12-05T10:35:18;6.3;97.5
45383;DHT22;42455;51.660;5.824;2022-12-05T10:40:10;6.3;97.5
45383;DHT22;42455;51.660;5.824;2022-12-05T10:45:18;6.3;97.5
45383;DHT22;42455;51.660;5.824;2022-12-05T10:50:35;6.3;97.5
45383;DHT22;42455;51.660;5.824;2022-12-05T10:55:36;6.3;97.5
45383;DHT22;42455;51.660;5.824;2022-12-05T11:00:31;6.3;97.5
45383;DHT22;42455;51.660;5.824;2022-12-05T11:05:36;6.3;97.5
45383;DHT22;42455;51.660;5.824;2022-12-05T11:10:42;6.3;97.5
45383;DHT22;42455;51.660;5.824;2022-12-05T11:15:49;6.4;97.0
45383;DHT22;42455;51.660;5.824;2022-12-05T11:20:55;6.4;97.0
45383;DHT22;42455;51.660;5.824;2022-12-05T11:26:01;6.3;97.5
45383;DHT22;42455;51.660;5.824;2022-12-05T11:31:25;6.4;97.5
45383;DHT22;42455;51.660;5.824;2022-12-05T11:36:34;6.4;97.0
45383;DHT22;42455;51.660;5.824;2022-12-05T11:42:02;6.4;97.5
45383;DHT22;42455;51.660;5.824;2022-12-05T11:48:03;6.4;97.5
45383;DHT22;42455;51.660;5.824;2022-12-05T11:54:07;6.4;97.5
45383;DHT22;42455;51.660;5.824;2022-12-05T11:58:34;6.5;97.5
45383;DHT22;42455;51.660;5.824;2022-12-05T12:04:15;6.5;97.5
45383;DHT22;42455;51.660;5.824;2022-12-05T12:08:34;6.5;97.5
45383;DHT22;42455;51.660;5.824;2022-12-05T12:14:24;6.6;97.5
45383;DHT22;42455;51.660;5.824;2022-12-05T12:19:42;6.6;97.5
45383;DHT22;42455;51.660;5.824;2022-12-05T12:25:49;6.6;97.5
45383;DHT22;42455;51.660;5.824;2022-12-05T12:31:12;6.6;97.5
45383;DHT22;42455;51.660;5.824;2022-12-05T12:36:27;6.6;97.5
45383;DHT22;42455;51.660;5.824;2022-12-05T12:41:25;6.6;97.5
45383;DHT22;42455;51.660;5.824;2022-12-05T12:46:58;6.6;97.5
45383;DHT22;42455;51.660;5.824;2022-12-05T12:51:01;6.6;97.5
45383;DHT22;42455;51.660;5.824;2022-12-05T12:53:35;6.6;97.5
45383;DHT22;42455;51.660;5.824;2022-12-05T12:58:49;6.6;97.5
45383;DHT22;42455;51.660;5.824;2022-12-05T13:03:24;6.6;97.5
45383;DHT22;42455;51.660;5.824;2022-12-05T13:08:10;6.7;97.5
45383;DHT22;42455;51.660;5.824;2022-12-05T13:13:17;6.7;97.5
45383;DHT22;42455;51.660;5.824;2022-12-05T13:18:19;6.7;97.5
45383;DHT22;42455;51.660;5.824;2022-12-05T13:23:26;6.7;97.5
45383;DHT22;42455;51.660;5.824;2022-12-05T13:28:38;6.8;97.5
45383;DHT22;42455;51.660;5.824;2022-12-05T13:33:42;6.8;97.5
45383;DHT22;42455;51.660;5.824;2022-12-05T13:38:42;6.9;97.5
45383;DHT22;42455;51.660;5.824;2022-12-05T13:43:50;6.9;97.5
45383;DHT22;42455;51.660;5.824;2022-12-05T13:49:03;6.9;97.5
45383;DHT22;42455;51.660;5.824;2022-12-05T13:54:09;6.9;97.5
45383;DHT22;42455;51.660;5.824;2022-12-05T13:59:07;6.9;97.5
45383;DHT22;42455;51.660;5.824;2022-12-05T14:04:43;7.0;97.5
45383;DHT22;42455;51.660;5.824;2022-12-05T14:09:47;7.0;98.0
45383;DHT22;42455;51.660;5.824;2022-12-05T14:14:59;7.0;97.5
45383;DHT22;42455;51.660;5.824;2022-12-05T14:20:27;7.0;97.5
45383;DHT22;42455;51.660;5.824;2022-12-05T14:24:56;7.1;97.5
45383;DHT22;42455;51.660;5.824;2022-12-05T14:30:52;7.1;98.0
45383;DHT22;42455;51.660;5.824;2022-12-05T14:35:00;7.1;97.5
45383;DHT22;42455;51.660;5.824;2022-12-05T14:39:58;7.1;97.5
45383;DHT22;42455;51.660;5.824;2022-12-05T14:45:21;7.1;97.5
45383;DHT22;42455;51.660;5.824;2022-12-05T14:50:42;7.1;97.5
45383;DHT22;42455;51.660;5.824;2022-12-05T14:55:16;7.1;97.5
45383;DHT22;42455;51.660;5.824;2022-12-05T15:00:22;7.1;97.5
45383;DHT22;42455;51.660;5.824;2022-12-05T15:05:30;7.1;97.5
45383;DHT22;42455;51.660;5.824;2022-12-05T15:10:37;7.1;97.5
45383;DHT22;42455;51.660;5.824;2022-12-05T15:15:43;7.1;97.5
45383;DHT22;42455;51.660;5.824;2022-12-05T15:20:49;7.1;98.0
45383;DHT22;42455;51.660;5.824;2022-12-05T15:25:53;7.1;98.0
45383;DHT22;42455;51.660;5.824;2022-12-05T15:30:59;7.1;98.0
45383;DHT22;42455;51.660;5.824;2022-12-05T15:36:05;7.1;98.0
45383;DHT22;42455;51.660;5.824;2022-12-05T15:41:15;7.1;98.0
45383;DHT22;42455;51.660;5.824;2022-12-05T15:46:22;7.1;98.0
45383;DHT22;42455;51.660;5.824;2022-12-05T15:51:27;7.1;98.0
45383;DHT22;42455;51.660;5.824;2022-12-05T15:56:34;7.1;98.0
45383;DHT22;42455;51.660;5.824;2022-12-05T16:01:44;7.0;98.0
45383;DHT22;42455;51.660;5.824;2022-12-05T16:06:50;7.1;98.0
45383;DHT22;42455;51.660;5.824;2022-12-05T16:11:50;7.0;98.0
45383;DHT22;42455;51.660;5.824;2022-12-05T16:16:57;7.1;98.0
45383;DHT22;42455;51.660;5.824;2022-12-05T16:22:06;7.0;98.0
45383;DHT22;42455;51.660;5.824;2022-12-05T16:27:15;7.1;98.0
45383;DHT22;42455;51.660;5.824;2022-12-05T16:32:23;7.0;98.0
45383;DHT22;42455;51.660;5.824;2022-12-05T16:37:28;7.0;98.0
45383;DHT22;42455;51.660;5.824;2022-12-05T16:42:27;7.1;98.0
45383;DHT22;42455;51.660;5.824;2022-12-05T16:48:00;7.1;98.5
45383;DHT22;42455;51.660;5.824;2022-12-05T16:52:37;7.1;98.5
45383;DHT22;42455;51.660;5.824;2022-12-05T16:57:43;7.1;98.5
45383;DHT22;42455;51.660;5.824;2022-12-05T17:02:50;7.1;98.5
45383;DHT22;42455;51.660;5.824;2022-12-05T17:07:56;7.1;98.5
45383;DHT22;42455;51.660;5.824;2022-12-05T17:13:02;7.1;98.5
45383;DHT22;42455;51.660;5.824;2022-12-05T17:18:10;7.1;98.5
45383;DHT22;42455;51.660;5.824;2022-12-05T17:23:15;7.1;98.5
45383;DHT22;42455;51.660;5.824;2022-12-05T17:28:22;7.2;98.5
45383;DHT22;42455;51.660;5.824;2022-12-05T17:33:27;7.2;98.5
45383;DHT22;42455;51.660;5.824;2022-12-05T17:38:33;7.2;98.5
45383;DHT22;42455;51.660;5.824;2022-12-05T17:43:39;7.2;98.5
45383;DHT22;42455;51.660;5.824;2022-12-05T17:48:46;7.2;98.5
45383;DHT22;42455;51.660;5.824;2022-12-05T17:53:52;7.3;98.5
45383;DHT22;42455;51.660;5.824;2022-12-05T17:58:58;7.3;98.5
45383;DHT22;42455;51.660;5.824;2022-12-05T18:04:04;7.3;98.5
45383;DHT22;42455;51.660;5.824;2022-12-05T18:09:10;7.4;98.5
45383;DHT22;42455;51.660;5.824;2022-12-05T18:14:17;7.4;98.5
45383;DHT22;42455;51.660;5.824;2022-12-05T18:19:23;7.4;98.5
45383;DHT22;42455;51.660;5.824;2022-12-05T18:24:29;7.4;98.5
45383;DHT22;42455;51.660;5.824;2022-12-05T18:29:35;7.4;98.5
45383;DHT22;42455;51.660;5.824;2022-12-05T18:34:41;7.4;98.5
45383;DHT22;42455;51.660;5.824;2022-12-05T18:39:48;7.4;98.5
45383;DHT22;42455;51.660;5.824;2022-12-05T18:44:54;7.4;98.5
45383;DHT22;42455;51.660;5.824;2022-12-05T18:50:00;7.5;98.5
45383;DHT22;42455;51.660;5.824;2022-12-05T18:55:06;7.5;98.5
45383;DHT22;42455;51.660;5.824;2022-12-05T19:00:13;7.5;98.5
45383;DHT22;42455;51.660;5.824;2022-12-05T19:05:19;7.5;98.5
45383;DHT22;42455;51.660;5.824;2022-12-05T19:10:25;7.5;98.5
45383;DHT22;42455;51.660;5.824;2022-12-05T19:15:31;7.5;98.5
45383;DHT22;42455;51.660;5.824;2022-12-05T19:20:37;7.5;98.5
45383;DHT22;42455;51.660;5.824;2022-12-05T19:25:43;7.5;98.5
45383;DHT22;42455;51.660;5.824;2022-12-05T19:30:57;7.5;98.5
45383;DHT22;42455;51.660;5.824;2022-12-05T19:35:59;7.6;98.5
45383;DHT22;42455;51.660;5.824;2022-12-05T19:41:03;7.6;98.5
45383;DHT22;42455;51.660;5.824;2022-12-05T19:46:10;7.6;98.5
45383;DHT22;42455;51.660;5.824;2022-12-05T19:51:15;7.6;98.5
45383;DHT22;42455;51.660;5.824;2022-12-05T19:56:22;7.6;98.5
45383;DHT22;42455;51.660;5.824;2022-12-05T20:01:29;7.6;98.5
45383;DHT22;42455;51.660;5.824;2022-12-05T20:06:36;7.7;98.5
45383;DHT22;42455;51.660;5.824;2022-12-05T20:11:41;7.7;98.5
45383;DHT22;42455;51.660;5.824;2022-12-05T20:16:46;7.7;98.5
45383;DHT22;42455;51.660;5.824;2022-12-05T20:21:52;7.7;98.5
45383;DHT22;42455;51.660;5.824;2022-12-05T20:26:58;7.7;98.5
45383;DHT22;42455;51.660;5.824;2022-12-05T20:32:04;7.7;98.5
45383;DHT22;42455;51.660;5.824;2022-12-05T20:37:10;7.7;98.5
45383;DHT22;42455;51.660;5.824;2022-12-05T20:42:17;7.7;98.5
45383;DHT22;42455;51.660;5.824;2022-12-05T20:47:23;7.7;98.5
45383;DHT22;42455;51.660;5.824;2022-12-05T20:52:29;7.7;98.5
45383;DHT22;42455;51.660;5.824;2022-12-05T20:57:35;7.7;98.5
45383;DHT22;42455;51.660;5.824;2022-12-05T21:02:41;7.7;98.5
45383;DHT22;42455;51.660;5.824;2022-12-05T21:07:48;7.7;98.5
45383;DHT22;42455;51.660;5.824;2022-12-05T21:12:54;7.7;98.5
45383;DHT22;42455;51.660;5.824;2022-12-05T21:18:00;7.7;98.5
45383;DHT22;42455;51.660;5.824;2022-12-05T21:23:06;7.7;98.5
45383;DHT22;42455;51.660;5.824;2022-12-05T21:28:12;7.7;98.5
45383;DHT22;42455;51.660;5.824;2022-12-05T21:33:19;7.7;98.5
45383;DHT22;42455;51.660;5.824;2022-12-05T21:38:25;7.7;98.5
45383;DHT22;42455;51.660;5.824;2022-12-05T21:43:33;7.7;98.5
45383;DHT22;42455;51.660;5.824;2022-12-05T21:48:37;7.7;98.5
45383;DHT22;42455;51.660;5.824;2022-12-05T21:53:44;7.7;98.5
45383;DHT22;42455;51.660;5.824;2022-12-05T21:58:50;7.7;98.5
45383;DHT22;42455;51.660;5.824;2022-12-05T22:03:57;7.7;98.5
45383;DHT22;42455;51.660;5.824;2022-12-05T22:09:02;7.7;98.5
45383;DHT22;42455;51.660;5.824;2022-12-05T22:14:07;7.7;98.5
45383;DHT22;42455;51.660;5.824;2022-12-05T22:19:14;7.7;98.5
45383;DHT22;42455;51.660;5.824;2022-12-05T22:24:20;7.7;98.5
45383;DHT22;42455;51.660;5.824;2022-12-05T22:29:26;7.7;98.5
45383;DHT22;42455;51.660;5.824;2022-12-05T22:34:32;7.7;98.5
45383;DHT22;42455;51.660;5.824;2022-12-05T22:39:37;7.7;98.5
45383;DHT22;42455;51.660;5.824;2022-12-05T22:44:44;7.7;98.5
45383;DHT22;42455;51.660;5.824;2022-12-05T22:49:50;7.7;98.5
45383;DHT22;42455;51.660;5.824;2022-12-05T22:54:56;7.7;98.5
45383;DHT22;42455;51.660;5.824;2022-12-05T23:00:03;7.7;98.5
45383;DHT22;42455;51.660;5.824;2022-12-05T23:05:08;7.7;98.5
45383;DHT22;42455;51.660;5.824;2022-12-05T23:10:15;7.7;98.5
45383;DHT22;42455;51.660;5.824;2022-12-05T23:20:27;7.7;98.5
45383;DHT22;42455;51.660;5.824;2022-12-05T23:25:33;7.7;98.5
45383;DHT22;42455;51.660;5.824;2022-12-05T23:30:40;7.7;98.5
45383;DHT22;42455;51.660;5.824;2022-12-05T23:35:51;7.7;98.5
45383;DHT22;42455;51.660;5.824;2022-12-05T23:41:01;7.6;98.5
45383;DHT22;42455;51.660;5.824;2022-12-05T23:45:59;7.6;98.5
45383;DHT22;42455;51.660;5.824;2022-12-05T23:51:07;7.6;98.5
45383;DHT22;42455;51.660;5.824;2022-12-05T23:56:15;7.6;98.5
